createdAt,value
2018-05-01T00:02:12.541Z,11.70
2018-05-01T00:04:39.990Z,11.60
2018-05-01T00:07:08.212Z,11.60
2018-05-01T00:09:35.654Z,11.50
2018-05-01T00:12:03.102Z,11.60
2018-05-01T00:14:30.541Z,11.50
2018-05-01T00:16:58.006Z,11.50
2018-05-01T00:19:25.456Z,11.50
2018-05-01T00:21:52.910Z,11.50
2018-05-01T00:24:20.368Z,11.50
2018-05-01T00:26:47.816Z,11.50
2018-05-01T00:29:15.257Z,11.50
2018-05-01T00:31:43.476Z,11.50
2018-05-01T00:34:10.922Z,11.50
2018-05-01T00:36:38.397Z,11.50
2018-05-01T00:39:06.613Z,11.50
2018-05-01T00:41:34.834Z,11.50
2018-05-01T00:44:02.274Z,11.50
2018-05-01T00:46:29.718Z,11.50
2018-05-01T00:48:57.231Z,11.50
2018-05-01T00:51:24.714Z,11.40
2018-05-01T00:53:52.133Z,11.40
2018-05-01T00:56:19.575Z,11.40
2018-05-01T00:58:47.046Z,11.40
2018-05-01T01:01:14.478Z,11.40
2018-05-01T01:03:42.023Z,11.40
2018-05-01T01:06:09.381Z,11.40
2018-05-01T01:08:36.838Z,11.40
2018-05-01T01:11:04.280Z,11.40
2018-05-01T01:13:31.744Z,11.40
2018-05-01T01:15:59.190Z,11.40
2018-05-01T01:18:26.653Z,11.40
2018-05-01T01:20:54.095Z,11.40
2018-05-01T01:23:21.553Z,11.40
2018-05-01T01:25:49.008Z,11.40
2018-05-01T01:28:16.467Z,11.40
2018-05-01T01:30:43.909Z,11.40
2018-05-01T01:33:12.133Z,11.40
2018-05-01T01:35:39.097Z,11.40
2018-05-01T01:38:06.055Z,11.40
2018-05-01T01:40:33.015Z,11.40
2018-05-01T01:42:59.983Z,11.30
2018-05-01T01:45:26.934Z,11.30
2018-05-01T01:47:53.885Z,11.30
2018-05-01T01:50:20.865Z,11.30
2018-05-01T01:52:47.808Z,11.30
2018-05-01T01:55:14.773Z,11.30
2018-05-01T01:57:42.496Z,11.30
2018-05-01T02:00:09.461Z,11.20
2018-05-01T02:02:37.186Z,11.30
2018-05-01T02:05:04.158Z,11.20
2018-05-01T02:07:31.101Z,11.20
2018-05-01T02:09:58.072Z,11.20
2018-05-01T02:12:25.791Z,11.20
2018-05-01T02:14:52.744Z,11.20
2018-05-01T02:17:19.704Z,11.20
2018-05-01T02:19:46.661Z,11.10
2018-05-01T02:22:14.378Z,11.10
2018-05-01T02:24:41.336Z,11.10
2018-05-01T02:27:08.290Z,11.10
2018-05-01T02:29:35.261Z,11.10
2018-05-01T02:32:02.975Z,11.10
2018-05-01T02:34:29.940Z,11.10
2018-05-01T02:36:56.894Z,11.10
2018-05-01T02:39:24.642Z,11.10
2018-05-01T02:41:51.585Z,11.10
2018-05-01T02:44:18.546Z,11.10
2018-05-01T02:46:46.279Z,11.10
2018-05-01T02:49:13.260Z,11.10
2018-05-01T02:51:40.982Z,11.10
2018-05-01T02:54:07.954Z,11.00
2018-05-01T02:56:34.915Z,11.00
2018-05-01T02:59:02.644Z,11.00
2018-05-01T03:01:29.627Z,11.00
2018-05-01T03:03:57.337Z,11.00
2018-05-01T03:06:24.310Z,11.00
2018-05-01T03:08:51.262Z,11.00
2018-05-01T03:11:19.002Z,11.00
2018-05-01T03:13:45.950Z,11.00
2018-05-01T03:16:12.910Z,11.00
2018-05-01T03:18:40.634Z,10.90
2018-05-01T03:21:07.602Z,10.90
2018-05-01T03:23:34.558Z,10.90
2018-05-01T03:26:02.289Z,11.00
2018-05-01T03:28:29.252Z,11.00
2018-05-01T03:30:56.223Z,11.00
2018-05-01T03:33:23.979Z,10.90
2018-05-01T03:35:50.926Z,10.90
2018-05-01T03:38:18.644Z,10.90
2018-05-01T03:40:45.618Z,10.80
2018-05-01T03:43:12.570Z,10.90
2018-05-01T03:45:40.303Z,10.90
2018-05-01T03:48:08.425Z,10.90
2018-05-01T03:50:35.390Z,10.90
2018-05-01T03:53:02.335Z,10.90
2018-05-01T03:55:29.292Z,10.90
2018-05-01T03:57:56.240Z,10.90
2018-05-01T04:00:23.200Z,10.90
2018-05-01T04:02:50.148Z,10.90
2018-05-01T04:05:17.101Z,10.80
2018-05-01T04:07:44.823Z,10.80
2018-05-01T04:10:12.609Z,10.80
2018-05-01T04:12:39.556Z,10.80
2018-05-01T04:15:06.512Z,10.80
2018-05-01T04:17:33.464Z,10.80
2018-05-01T04:20:01.187Z,10.80
2018-05-01T04:22:28.150Z,10.80
2018-05-01T04:24:55.098Z,10.80
2018-05-01T04:27:22.056Z,10.80
2018-05-01T04:29:49.771Z,10.80
2018-05-01T04:32:16.722Z,10.80
2018-05-01T04:34:44.436Z,10.80
2018-05-01T04:37:11.399Z,10.70
2018-05-01T04:39:38.349Z,10.80
2018-05-01T04:42:05.299Z,10.80
2018-05-01T04:44:32.247Z,10.80
2018-05-01T04:46:59.217Z,10.80
2018-05-01T04:49:26.169Z,10.80
2018-05-01T04:51:53.186Z,10.80
2018-05-01T04:54:20.334Z,10.80
2018-05-01T04:56:47.307Z,10.80
2018-05-01T04:59:14.261Z,10.80
2018-05-01T05:01:41.220Z,10.70
2018-05-01T05:04:08.936Z,10.70
2018-05-01T05:06:35.903Z,10.70
2018-05-01T05:09:02.854Z,10.70
2018-05-01T05:11:29.820Z,10.60
2018-05-01T05:13:57.537Z,10.50
2018-05-01T05:16:24.500Z,10.50
2018-05-01T05:18:51.457Z,10.50
2018-05-01T05:21:19.344Z,10.40
2018-05-01T05:23:46.301Z,10.40
2018-05-01T05:26:13.266Z,10.40
2018-05-01T05:28:40.212Z,10.40
2018-05-01T05:31:07.160Z,10.30
2018-05-01T05:33:34.152Z,10.40
2018-05-01T05:36:01.860Z,10.30
2018-05-01T05:38:28.812Z,10.30
2018-05-01T05:40:55.756Z,10.30
2018-05-01T05:43:22.725Z,10.30
2018-05-01T05:45:49.675Z,10.30
2018-05-01T05:48:17.408Z,10.30
2018-05-01T05:50:44.364Z,10.30
2018-05-01T05:53:11.319Z,10.30
2018-05-01T05:55:38.266Z,10.30
2018-05-01T05:58:05.993Z,10.30
2018-05-01T06:00:32.940Z,10.20
2018-05-01T06:03:00.669Z,10.20
2018-05-01T06:05:27.616Z,10.20
2018-05-01T06:07:54.580Z,10.20
2018-05-01T06:10:21.525Z,10.20
2018-05-01T06:12:48.492Z,10.20
2018-05-01T06:15:15.449Z,10.20
2018-05-01T06:17:42.412Z,10.20
2018-05-01T06:20:10.140Z,10.20
2018-05-01T06:22:37.093Z,10.20
2018-05-01T06:25:04.044Z,10.20
2018-05-01T06:27:31.003Z,10.20
2018-05-01T06:29:58.765Z,10.20
2018-05-01T06:32:26.480Z,10.30
2018-05-01T06:34:53.455Z,10.20
2018-05-01T06:37:20.421Z,10.20
2018-05-01T06:39:48.137Z,10.20
2018-05-01T06:42:15.088Z,10.20
2018-05-01T06:44:42.048Z,10.30
2018-05-01T06:47:09.765Z,10.30
2018-05-01T06:49:36.724Z,10.30
2018-05-01T06:52:04.440Z,10.20
2018-05-01T06:54:31.397Z,10.20
2018-05-01T06:56:58.350Z,10.20
2018-05-01T06:59:25.301Z,10.20
2018-05-01T07:01:52.248Z,10.30
2018-05-01T07:04:19.297Z,10.30
2018-05-01T07:06:46.927Z,10.40
2018-05-01T07:09:13.886Z,10.40
2018-05-01T07:11:40.837Z,10.40
2018-05-01T07:14:07.852Z,10.40
2018-05-01T07:16:35.569Z,10.40
2018-05-01T07:19:02.542Z,10.40
2018-05-01T07:21:30.252Z,10.50
2018-05-01T07:23:57.210Z,10.50
2018-05-01T07:26:24.157Z,10.50
2018-05-01T07:28:51.138Z,10.50
2018-05-01T07:31:18.848Z,10.50
2018-05-01T07:33:45.812Z,10.50
2018-05-01T07:36:12.762Z,10.50
2018-05-01T07:38:39.737Z,10.50
2018-05-01T07:41:07.452Z,10.50
2018-05-01T07:43:34.412Z,10.50
2018-05-01T07:46:01.369Z,10.50
2018-05-01T07:48:28.320Z,10.60
2018-05-01T07:50:56.041Z,10.50
2018-05-01T07:53:23.130Z,10.50
2018-05-01T07:55:50.872Z,10.60
2018-05-01T07:58:17.824Z,10.60
2018-05-01T08:00:44.781Z,10.60
2018-05-01T08:03:12.504Z,10.60
2018-05-01T08:05:39.465Z,10.60
2018-05-01T08:08:06.425Z,10.60
2018-05-01T08:10:33.373Z,10.60
2018-05-01T08:13:01.096Z,10.60
2018-05-01T08:15:28.059Z,10.60
2018-05-01T08:17:55.021Z,10.60
2018-05-01T08:20:21.973Z,10.60
2018-05-01T08:22:49.692Z,10.60
2018-05-01T08:25:16.648Z,10.60
2018-05-01T08:27:43.595Z,10.60
2018-05-01T08:30:10.561Z,10.60
2018-05-01T08:32:38.282Z,10.50
2018-05-01T08:35:05.240Z,10.50
2018-05-01T08:37:32.260Z,10.60
2018-05-01T08:39:59.144Z,10.60
2018-05-01T08:42:26.093Z,10.60
2018-05-01T08:44:53.048Z,10.60
2018-05-01T08:47:20.763Z,10.60
2018-05-01T08:49:47.743Z,10.60
2018-05-01T08:52:14.689Z,10.60
2018-05-01T08:54:41.644Z,10.60
2018-05-01T08:57:08.591Z,10.60
2018-05-01T08:59:36.330Z,10.60
2018-05-01T09:02:03.277Z,10.60
2018-05-01T09:04:30.216Z,10.60
2018-05-01T09:06:57.200Z,10.60
2018-05-01T09:09:24.160Z,10.70
2018-05-01T09:11:51.101Z,10.70
2018-05-01T09:14:18.061Z,10.70
2018-05-01T09:16:45.017Z,10.60
2018-05-01T09:19:11.971Z,10.60
2018-05-01T09:21:38.928Z,10.60
2018-05-01T09:24:05.880Z,10.60
2018-05-01T09:26:32.844Z,10.60
2018-05-01T09:28:59.817Z,10.60
2018-05-01T09:31:26.769Z,10.70
2018-05-01T09:33:53.729Z,10.70
2018-05-01T09:36:20.684Z,10.80
2018-05-01T09:38:47.656Z,10.80
2018-05-01T09:41:15.399Z,10.80
2018-05-01T09:43:42.350Z,10.90
2018-05-01T09:46:09.308Z,10.90
2018-05-01T09:48:37.029Z,11.00
2018-05-01T09:51:03.990Z,10.90
2018-05-01T09:53:31.433Z,11.00
2018-05-01T09:55:58.888Z,11.00
2018-05-01T09:58:26.336Z,11.00
2018-05-01T10:00:53.800Z,11.00
2018-05-01T10:03:21.244Z,11.00
2018-05-01T10:05:48.701Z,11.00
2018-05-01T10:08:16.144Z,11.00
2018-05-01T10:10:43.607Z,11.00
2018-05-01T10:13:11.045Z,11.10
2018-05-01T10:15:38.494Z,11.10
2018-05-01T10:18:05.956Z,11.10
2018-05-01T10:20:33.407Z,11.10
2018-05-01T10:23:00.936Z,11.10
2018-05-01T10:25:28.392Z,11.20
2018-05-01T10:27:56.657Z,11.20
2018-05-01T10:30:24.102Z,11.20
2018-05-01T10:32:51.561Z,11.20
2018-05-01T10:35:18.999Z,11.30
2018-05-01T10:37:47.215Z,11.40
2018-05-01T10:40:14.654Z,11.30
2018-05-01T10:42:42.870Z,11.50
2018-05-01T10:45:10.306Z,11.50
2018-05-01T10:47:37.759Z,11.50
2018-05-01T10:50:05.194Z,11.60
2018-05-01T10:52:33.408Z,11.60
2018-05-01T10:55:00.871Z,11.60
2018-05-01T10:57:28.324Z,11.70
2018-05-01T10:59:55.784Z,11.70
2018-05-01T11:02:23.222Z,11.70
2018-05-01T11:04:50.656Z,11.70
2018-05-01T11:07:18.180Z,11.70
2018-05-01T11:09:45.625Z,11.70
2018-05-01T11:12:13.072Z,11.70
2018-05-01T11:14:40.508Z,11.70
2018-05-01T11:17:07.957Z,11.70
2018-05-01T11:19:35.392Z,11.80
2018-05-01T11:22:02.839Z,11.80
2018-05-01T11:24:31.072Z,11.70
2018-05-01T11:26:58.539Z,11.70
2018-05-01T11:29:26.084Z,11.70
2018-05-01T11:31:53.504Z,11.60
2018-05-01T11:34:20.953Z,11.60
2018-05-01T11:36:48.384Z,11.60
2018-05-01T11:39:16.605Z,11.60
2018-05-01T11:41:44.044Z,11.60
2018-05-01T11:44:11.515Z,11.60
2018-05-01T11:46:38.955Z,11.60
2018-05-01T11:49:06.405Z,11.60
2018-05-01T11:51:33.849Z,11.70
2018-05-01T11:54:01.296Z,11.70
2018-05-01T11:56:29.503Z,11.80
2018-05-01T11:58:56.975Z,11.80
2018-05-01T12:01:24.404Z,11.80
2018-05-01T12:03:55.097Z,11.80
2018-05-01T12:06:23.296Z,11.90
2018-05-01T12:08:50.754Z,11.90
2018-05-01T12:11:18.952Z,11.90
2018-05-01T12:13:46.408Z,11.90
2018-05-01T12:16:14.667Z,12.00
2018-05-01T12:18:42.103Z,11.90
2018-05-01T12:21:09.977Z,12.00
2018-05-01T12:23:38.194Z,12.00
2018-05-01T12:26:05.610Z,12.00
2018-05-01T12:28:33.066Z,12.10
2018-05-01T12:31:00.508Z,12.10
2018-05-01T12:33:28.718Z,12.10
2018-05-01T12:35:56.160Z,12.10
2018-05-01T12:38:23.624Z,12.10
2018-05-01T12:40:51.074Z,12.10
2018-05-01T12:43:18.528Z,12.10
2018-05-01T12:45:45.968Z,12.10
2018-05-01T12:48:13.406Z,12.10
2018-05-01T12:50:41.616Z,12.10
2018-05-01T12:53:09.058Z,12.10
2018-05-01T12:55:36.518Z,12.20
2018-05-01T13:00:37.887Z,12.60
2018-05-01T13:03:05.332Z,12.50
2018-05-01T13:05:32.781Z,12.60
2018-05-01T13:08:00.225Z,12.60
2018-05-01T13:10:29.299Z,12.60
2018-05-01T13:12:56.723Z,12.60
2018-05-01T13:15:24.936Z,12.70
2018-05-01T13:17:53.142Z,12.60
2018-05-01T13:20:20.584Z,12.60
2018-05-01T13:22:48.196Z,12.60
2018-05-01T13:25:15.697Z,12.60
2018-05-01T13:27:43.907Z,12.50
2018-05-01T13:30:11.351Z,12.40
2018-05-01T13:32:38.861Z,12.40
2018-05-01T13:35:06.239Z,12.40
2018-05-01T13:37:33.668Z,12.40
2018-05-01T13:40:01.116Z,12.40
2018-05-01T13:42:28.560Z,12.40
2018-05-01T13:44:56.001Z,12.50
2018-05-01T13:47:23.451Z,12.50
2018-05-01T13:50:03.830Z,12.60
2018-05-01T13:52:32.076Z,12.70
2018-05-01T13:54:59.520Z,12.70
2018-05-01T13:57:27.052Z,12.80
2018-05-01T13:59:54.400Z,13.00
2018-05-01T14:02:22.614Z,13.40
2018-05-01T14:04:50.819Z,13.50
2018-05-01T14:07:18.262Z,13.40
2018-05-01T14:09:46.486Z,13.50
2018-05-01T14:12:14.683Z,13.40
2018-05-01T14:14:42.900Z,13.30
2018-05-01T14:17:10.364Z,13.30
2018-05-01T14:19:37.806Z,13.30
2018-05-01T14:22:05.253Z,13.20
2018-05-01T14:24:32.701Z,13.10
2018-05-01T14:27:00.908Z,13.00
2018-05-01T14:29:28.345Z,12.90
2018-05-01T14:31:55.802Z,13.00
2018-05-01T14:34:23.237Z,13.50
2018-05-01T14:36:50.688Z,14.10
2018-05-01T14:39:18.126Z,14.60
2018-05-01T14:41:45.588Z,14.90
2018-05-01T14:44:13.042Z,15.10
2018-05-01T14:46:40.491Z,15.10
2018-05-01T14:49:07.929Z,15.20
2018-05-01T14:51:35.380Z,15.20
2018-05-01T14:54:02.872Z,14.90
2018-05-01T14:56:30.763Z,14.70
2018-05-01T14:58:58.187Z,14.50
2018-05-01T15:01:25.662Z,14.20
2018-05-01T15:03:53.073Z,14.00
2018-05-01T15:06:20.549Z,13.80
2018-05-01T15:08:48.040Z,13.70
2018-05-01T15:11:15.493Z,13.60
2018-05-01T15:13:42.936Z,13.60
2018-05-01T15:16:10.384Z,13.50
2018-05-01T15:18:37.879Z,13.60
2018-05-01T15:21:05.320Z,13.60
2018-05-01T15:23:32.764Z,13.80
2018-05-01T15:26:00.228Z,13.90
2018-05-01T15:28:27.752Z,14.00
2018-05-01T15:30:55.213Z,14.10
2018-05-01T15:33:22.668Z,14.10
2018-05-01T15:35:50.109Z,14.10
2018-05-01T15:38:17.544Z,14.10
2018-05-01T15:40:45.750Z,14.00
2018-05-01T15:43:13.200Z,14.00
2018-05-01T15:45:40.667Z,14.00
2018-05-01T15:48:08.114Z,14.00
2018-05-01T15:50:35.552Z,14.00
2018-05-01T15:53:03.031Z,14.00
2018-05-01T15:55:30.465Z,14.00
2018-05-01T15:57:57.909Z,14.00
2018-05-01T16:00:25.355Z,14.10
2018-05-01T16:02:53.601Z,14.00
2018-05-01T16:05:21.039Z,14.00
2018-05-01T16:07:48.484Z,13.90
2018-05-01T16:10:15.925Z,13.80
2018-05-01T16:12:43.392Z,13.70
2018-05-01T16:15:10.829Z,13.60
2018-05-01T16:17:38.285Z,13.50
2018-05-01T16:20:05.720Z,13.50
2018-05-01T16:22:33.937Z,13.50
2018-05-01T16:25:01.372Z,13.50
2018-05-01T16:27:29.588Z,13.50
2018-05-01T16:29:57.032Z,13.50
2018-05-01T16:32:24.488Z,13.50
2018-05-01T16:34:51.946Z,13.40
2018-05-01T16:37:19.388Z,13.40
2018-05-01T16:39:46.858Z,13.30
2018-05-01T16:42:14.317Z,13.20
2018-05-01T16:44:41.748Z,13.10
2018-05-01T16:47:09.208Z,13.10
2018-05-01T16:49:36.641Z,13.00
2018-05-01T16:52:04.085Z,13.00
2018-05-01T16:54:31.528Z,13.00
2018-05-01T16:56:59.752Z,13.00
2018-05-01T16:59:27.192Z,13.00
2018-05-01T17:01:54.638Z,13.00
2018-05-01T17:04:22.111Z,13.00
2018-05-01T17:06:49.532Z,13.00
2018-05-01T17:09:17.000Z,13.00
2018-05-01T17:11:44.442Z,12.90
2018-05-01T17:14:12.657Z,12.90
2018-05-01T17:16:40.084Z,12.90
2018-05-01T17:19:07.574Z,12.90
2018-05-01T17:21:35.012Z,12.90
2018-05-01T17:24:02.473Z,12.80
2018-05-01T17:26:29.970Z,12.80
2018-05-01T17:28:57.404Z,12.80
2018-05-01T17:31:24.845Z,12.80
2018-05-01T17:33:52.292Z,12.70
2018-05-01T17:36:19.752Z,12.70
2018-05-01T17:38:49.553Z,12.70
2018-05-01T17:41:16.993Z,12.70
2018-05-01T17:43:44.484Z,12.70
2018-05-01T17:46:11.925Z,12.60
2018-05-01T17:48:39.381Z,12.60
2018-05-01T17:51:06.815Z,12.60
2018-05-01T17:53:34.352Z,12.60
2018-05-01T17:56:02.600Z,12.60
2018-05-01T17:58:30.341Z,12.60
2018-05-01T18:00:57.789Z,12.50
2018-05-01T18:03:25.245Z,12.50
2018-05-01T18:05:52.697Z,12.40
2018-05-01T18:08:20.149Z,12.40
2018-05-01T18:10:47.612Z,12.40
2018-05-01T18:13:15.060Z,12.40
2018-05-01T18:15:42.501Z,12.30
2018-05-01T18:18:09.933Z,12.30
2018-05-01T18:20:38.164Z,12.30
2018-05-01T18:23:05.596Z,12.20
2018-05-01T18:25:33.048Z,12.20
2018-05-01T18:28:00.509Z,12.20
2018-05-01T18:30:28.666Z,12.10
2018-05-01T18:32:56.089Z,12.10
2018-05-01T18:35:24.308Z,12.00
2018-05-01T18:37:51.764Z,12.00
2018-05-01T18:40:19.221Z,12.00
2018-05-01T18:42:46.657Z,12.00
2018-05-01T18:45:14.097Z,12.00
2018-05-01T18:47:42.325Z,12.00
2018-05-01T18:50:09.765Z,11.90
2018-05-01T18:52:37.201Z,12.00
2018-05-01T18:55:04.650Z,12.00
2018-05-01T18:57:32.081Z,12.00
2018-05-01T19:00:00.300Z,12.00
2018-05-01T19:02:27.737Z,12.00
2018-05-01T19:04:55.180Z,12.00
2018-05-01T19:07:23.428Z,11.90
2018-05-01T19:09:50.949Z,11.90
2018-05-01T19:12:18.380Z,12.00
2018-05-01T19:14:45.833Z,12.00
2018-05-01T19:17:13.276Z,12.00
2018-05-01T19:19:41.488Z,11.90
2018-05-01T19:22:08.930Z,11.90
2018-05-01T19:24:36.409Z,11.90
2018-05-01T19:27:03.865Z,11.90
2018-05-01T19:29:31.308Z,11.90
2018-05-01T19:31:58.743Z,11.90
2018-05-01T19:34:26.281Z,11.90
2018-05-01T19:36:53.649Z,11.90
2018-05-01T19:39:21.091Z,11.90
2018-05-01T19:41:49.375Z,11.90
2018-05-01T19:44:16.816Z,11.90
2018-05-01T19:46:45.023Z,11.90
2018-05-01T19:49:12.502Z,11.90
2018-05-01T19:51:39.947Z,11.80
2018-05-01T19:54:07.399Z,11.80
2018-05-01T19:56:34.931Z,11.80
2018-05-01T19:59:02.372Z,11.80
2018-05-01T20:01:30.570Z,11.80
2018-05-01T20:03:58.001Z,11.80
2018-05-01T20:06:26.214Z,11.70
2018-05-01T20:08:53.721Z,11.70
2018-05-01T20:11:21.085Z,11.70
2018-05-01T20:13:49.292Z,11.70
2018-05-01T20:16:16.739Z,11.70
2018-05-01T20:18:44.186Z,11.70
2018-05-01T20:21:11.648Z,11.70
2018-05-01T20:23:39.079Z,11.60
2018-05-01T20:26:06.525Z,11.60
2018-05-01T20:28:34.734Z,11.60
2018-05-01T20:31:02.198Z,11.60
2018-05-01T20:33:29.628Z,11.60
2018-05-01T20:35:57.073Z,11.50
2018-05-01T20:38:25.280Z,11.50
2018-05-01T20:40:52.720Z,11.50
2018-05-01T20:43:20.177Z,11.50
2018-05-01T20:45:47.614Z,11.50
2018-05-01T20:48:15.821Z,11.40
2018-05-01T20:50:43.273Z,11.40
2018-05-01T20:53:10.713Z,11.30
2018-05-01T20:55:38.160Z,11.30
2018-05-01T20:58:05.596Z,11.20
2018-05-01T21:00:33.821Z,11.10
2018-05-01T21:03:01.253Z,11.10
2018-05-01T21:05:28.721Z,11.10
2018-05-01T21:07:56.157Z,11.10
2018-05-01T21:10:23.598Z,11.00
2018-05-01T21:12:51.810Z,10.90
2018-05-01T21:15:19.257Z,10.90
2018-05-01T21:17:46.768Z,10.90
2018-05-01T21:20:14.204Z,10.90
2018-05-01T21:22:41.653Z,10.80
2018-05-01T21:25:09.101Z,10.80
2018-05-01T21:27:36.552Z,10.70
2018-05-01T21:30:03.996Z,10.70
2018-05-01T21:32:31.439Z,10.70
2018-05-01T21:34:58.880Z,10.70
2018-05-01T21:37:26.358Z,10.60
2018-05-01T21:39:54.554Z,10.60
2018-05-01T21:42:22.009Z,10.60
2018-05-01T21:44:49.453Z,10.60
2018-05-01T21:47:16.912Z,10.50
2018-05-01T21:49:44.371Z,10.50
2018-05-01T21:52:11.822Z,10.50
2018-05-01T21:54:39.276Z,10.60
2018-05-01T21:57:06.725Z,10.50
2018-05-01T21:59:34.161Z,10.60
2018-05-01T22:02:01.615Z,10.50
2018-05-01T22:04:29.076Z,10.50
2018-05-01T22:06:56.529Z,10.40
2018-05-01T22:09:23.964Z,10.40
2018-05-01T22:11:52.200Z,10.40
2018-05-01T22:14:19.654Z,10.40
2018-05-01T22:16:47.100Z,10.30
2018-05-01T22:19:14.546Z,10.30
2018-05-01T22:21:41.985Z,10.30
2018-05-01T22:24:09.441Z,10.30
2018-05-01T22:26:36.897Z,10.20
2018-05-01T22:29:04.357Z,10.20
2018-05-01T22:31:31.789Z,10.20
2018-05-01T22:34:00.007Z,10.10
2018-05-01T22:36:27.454Z,10.10
2018-05-01T22:38:54.902Z,10.10
2018-05-01T22:41:22.340Z,10.10
2018-05-01T22:43:49.812Z,10.10
2018-05-01T22:46:17.240Z,10.10
2018-05-01T22:48:44.695Z,10.10
2018-05-01T22:51:12.907Z,10.00
2018-05-01T22:53:40.353Z,10.00
2018-05-01T22:56:07.792Z,10.00
2018-05-01T22:58:35.251Z,10.00
2018-05-01T23:01:02.698Z,10.00
2018-05-01T23:03:30.137Z,10.00
2018-05-01T23:05:58.346Z,9.90
2018-05-01T23:08:25.789Z,9.90
2018-05-01T23:10:53.999Z,9.90
2018-05-01T23:13:21.438Z,9.80
2018-05-01T23:15:48.905Z,9.80
2018-05-01T23:18:16.349Z,9.80
2018-05-01T23:20:43.786Z,9.80
2018-05-01T23:23:11.236Z,9.80
2018-05-01T23:25:38.668Z,9.70
2018-05-01T23:28:06.889Z,9.70
2018-05-01T23:30:34.335Z,9.70
2018-05-01T23:33:01.779Z,9.70
2018-05-01T23:35:29.227Z,9.70
2018-05-01T23:37:56.668Z,9.70
2018-05-01T23:40:24.880Z,9.70
2018-05-01T23:42:52.315Z,9.60
2018-05-01T23:45:19.772Z,9.70
2018-05-01T23:47:47.217Z,9.70
2018-05-01T23:50:14.668Z,9.70
2018-05-01T23:52:42.104Z,9.70
2018-05-01T23:55:10.322Z,9.70
2018-05-01T23:57:37.763Z,9.70
